Tower, MI

11:39 AM EDT on April 24, 2017 (GMT -0400)
Main Street | | Change Station

Elev 820 ft 45.36 °N, 84.23 °W | Updated 5 minutes ago

Clear
Clear
47.3 °F
Feels Like 47 °F
N
3.1
Wind Variable Wind from ESE
Gusts 8.1 mph

Today
High -- | Low -- °F
--% Chance of Precip.
Yesterday
High -- | Low -- °F
Precip. -- in
Pressure 30.16 in
Visibility 10.0 miles
Clouds Clear
Windchill 47 °F
Dew Point 38 °F
Humidity 69%
Rainfall 0.00 in
Snow Depth Not available.
6:36 AM 8:35 PM
Waning Crescent, 5% visible
METAR KPZQ 241534Z AUTO 09014G18KT 10SM CLR 05/01 A3016 RMK AO2 T00530006
Pressure 30.16 in
Visibility 10.0 miles
Clouds Clear
Windchill 47 °F
Dew Point 38 °F
Humidity 69%
Rainfall 0.00 in
Snow Depth Not available.
6:36 AM 8:35 PM
Waning Crescent, 5% visible
METAR KPZQ 241534Z AUTO 09014G18KT 10SM CLR 05/01 A3016 RMK AO2 T00530006

Get Severe Weather Alerts

Thanks for signing up!

Be on the lookout for a verification email in your inbox.

You'll start receiving the daily forecast at 8 AM.

×

10-Day Weather Forecast

Almanac

Astronomy

Apr. 24, 2017 Rise Set
Actual Time
Civil Twilight
Nautical Twilight
Astronomical Twilight
Moon
Length of Visible Light
Length of Day
Tomorrow will be .
, % of the Moon is Illuminated

Today's Extremes

State Highs State Lows

Community

WunderPhotos

WunderBlog® & News

Nearby

Air Quality

  Air Quality AQ Index Pollutant
Not available.

Snow Depth

Station Depth Elevation

Earthquake Activity

City Distance Mag. Time & Date
Minimum magnitude displayed is 2.5.

Coastal Water Temperatures

Place Temperature

Stations

Nearby Weather Stations

Station Location Temp. Windchill Dew Point Humidity Wind Precip. Elev Updated Type
                   

Watches & Warnings

There are currently no watches in effect.